Las Vegas, New Mexico
Current Conditions -  °F | °C
As of 2:24 AM on Wednesday 22 Oct 2014 (Local Time) from KLVS Reporting Station
Scattered Clouds Scattered Clouds  
Wind Chill: 43°   Ceiling: Unl
Heat Index: 48°   Visibility: 7mi
Dew Point: 47°   Wind: 13mph
Humidity: 96%   Direction: 200°SSW
Pressure: 30.15"   Gusts: NA
Location:  35.6°N, 105.21°W
Report Text: KLVS 220824Z AUTO 20011KT 7SM SCT002 09/08 A3015 RMK AO2 T00890083
Loading
Personal Weather Stations






























Interactive Weather Map
Tropical Storm Tracking
New forecast layout! Learn more

10-Day Weather Forecast

Advertisements
Track Severe Weather on mobile